sensor_id;sensor_type;location;lat;lon;timestamp;temperature;humidity
12413;DHT22;13877;18.896;-99.222;2023-12-20T00:00:39;19.50;1.00
12413;DHT22;13877;18.896;-99.222;2023-12-20T00:03:06;19.30;1.00
12413;DHT22;13877;18.896;-99.222;2023-12-20T00:05:33;19.00;1.00
12413;DHT22;13877;18.896;-99.222;2023-12-20T00:08:02;18.70;1.00
12413;DHT22;13877;18.896;-99.222;2023-12-20T00:10:31;18.50;1.00
12413;DHT22;13877;18.896;-99.222;2023-12-20T00:13:00;18.40;1.00
12413;DHT22;13877;18.896;-99.222;2023-12-20T00:15:28;18.30;1.00
12413;DHT22;13877;18.896;-99.222;2023-12-20T00:17:56;18.20;1.00
12413;DHT22;13877;18.896;-99.222;2023-12-20T00:20:23;18.30;1.00
12413;DHT22;13877;18.896;-99.222;2023-12-20T00:22:52;18.40;1.00
12413;DHT22;13877;18.896;-99.222;2023-12-20T00:25:19;18.50;1.00
12413;DHT22;13877;18.896;-99.222;2023-12-20T00:27:46;18.40;1.00
12413;DHT22;13877;18.896;-99.222;2023-12-20T00:30:15;18.30;1.00
12413;DHT22;13877;18.896;-99.222;2023-12-20T00:32:43;18.40;1.00
12413;DHT22;13877;18.896;-99.222;2023-12-20T00:35:15;18.40;1.00
12413;DHT22;13877;18.896;-99.222;2023-12-20T00:37:46;18.40;1.00
12413;DHT22;13877;18.896;-99.222;2023-12-20T00:40:14;18.40;1.00
12413;DHT22;13877;18.896;-99.222;2023-12-20T00:42:42;18.40;1.00
12413;DHT22;13877;18.896;-99.222;2023-12-20T00:45:09;18.40;1.00
12413;DHT22;13877;18.896;-99.222;2023-12-20T00:47:36;18.40;1.00
12413;DHT22;13877;18.896;-99.222;2023-12-20T00:50:04;18.30;1.00
12413;DHT22;13877;18.896;-99.222;2023-12-20T00:52:32;18.30;1.00
12413;DHT22;13877;18.896;-99.222;2023-12-20T00:55:00;18.20;1.00
12413;DHT22;13877;18.896;-99.222;2023-12-20T00:57:27;18.10;1.00
12413;DHT22;13877;18.896;-99.222;2023-12-20T00:59:54;18.00;1.00
12413;DHT22;13877;18.896;-99.222;2023-12-20T01:02:21;18.00;1.00
12413;DHT22;13877;18.896;-99.222;2023-12-20T01:05:13;17.90;1.00
12413;DHT22;13877;18.896;-99.222;2023-12-20T01:08:05;17.90;1.00
12413;DHT22;13877;18.896;-99.222;2023-12-20T01:10:57;18.00;1.00
12413;DHT22;13877;18.896;-99.222;2023-12-20T01:13:49;18.00;1.00
12413;DHT22;13877;18.896;-99.222;2023-12-20T01:16:41;18.10;1.00
12413;DHT22;13877;18.896;-99.222;2023-12-20T01:19:33;17.90;1.00
12413;DHT22;13877;18.896;-99.222;2023-12-20T01:22:26;17.90;1.00
12413;DHT22;13877;18.896;-99.222;2023-12-20T01:25:17;17.90;1.00
12413;DHT22;13877;18.896;-99.222;2023-12-20T01:28:12;17.90;1.00
12413;DHT22;13877;18.896;-99.222;2023-12-20T01:31:03;17.90;1.00
12413;DHT22;13877;18.896;-99.222;2023-12-20T01:37:24;17.80;1.00
12413;DHT22;13877;18.896;-99.222;2023-12-20T01:39:58;17.80;1.00
12413;DHT22;13877;18.896;-99.222;2023-12-20T01:42:26;17.80;1.00
12413;DHT22;13877;18.896;-99.222;2023-12-20T01:44:53;17.60;1.00
12413;DHT22;13877;18.896;-99.222;2023-12-20T01:47:22;17.60;1.00
12413;DHT22;13877;18.896;-99.222;2023-12-20T01:49:51;17.60;1.00
12413;DHT22;13877;18.896;-99.222;2023-12-20T01:52:20;17.60;1.00
12413;DHT22;13877;18.896;-99.222;2023-12-20T01:54:49;17.60;1.00
12413;DHT22;13877;18.896;-99.222;2023-12-20T01:57:16;17.60;1.00
12413;DHT22;13877;18.896;-99.222;2023-12-20T01:59:44;17.60;1.00
12413;DHT22;13877;18.896;-99.222;2023-12-20T02:02:12;17.70;1.00
12413;DHT22;13877;18.896;-99.222;2023-12-20T02:04:41;17.60;1.00
12413;DHT22;13877;18.896;-99.222;2023-12-20T02:07:09;17.60;1.00
12413;DHT22;13877;18.896;-99.222;2023-12-20T02:09:37;17.50;1.00
12413;DHT22;13877;18.896;-99.222;2023-12-20T02:12:06;17.50;1.00
12413;DHT22;13877;18.896;-99.222;2023-12-20T02:14:40;17.50;1.00
12413;DHT22;13877;18.896;-99.222;2023-12-20T02:17:08;17.50;1.00
12413;DHT22;13877;18.896;-99.222;2023-12-20T02:19:35;17.60;1.00
12413;DHT22;13877;18.896;-99.222;2023-12-20T02:22:12;17.50;1.00
12413;DHT22;13877;18.896;-99.222;2023-12-20T02:24:40;17.40;1.00
12413;DHT22;13877;18.896;-99.222;2023-12-20T02:27:07;17.50;1.00
12413;DHT22;13877;18.896;-99.222;2023-12-20T02:29:37;17.50;1.00
12413;DHT22;13877;18.896;-99.222;2023-12-20T02:32:05;17.50;1.00
12413;DHT22;13877;18.896;-99.222;2023-12-20T02:34:34;17.50;1.00
12413;DHT22;13877;18.896;-99.222;2023-12-20T02:37:01;17.40;1.00
12413;DHT22;13877;18.896;-99.222;2023-12-20T02:39:29;17.30;1.00
12413;DHT22;13877;18.896;-99.222;2023-12-20T02:41:57;17.40;1.00
12413;DHT22;13877;18.896;-99.222;2023-12-20T02:44:24;17.40;1.00
12413;DHT22;13877;18.896;-99.222;2023-12-20T02:46:51;17.50;1.00
12413;DHT22;13877;18.896;-99.222;2023-12-20T02:49:19;17.40;1.00
12413;DHT22;13877;18.896;-99.222;2023-12-20T02:51:46;17.30;1.00
12413;DHT22;13877;18.896;-99.222;2023-12-20T02:54:14;17.30;1.00
12413;DHT22;13877;18.896;-99.222;2023-12-20T02:56:41;17.50;1.00
12413;DHT22;13877;18.896;-99.222;2023-12-20T02:59:09;17.50;1.00
12413;DHT22;13877;18.896;-99.222;2023-12-20T03:01:44;17.40;1.00
12413;DHT22;13877;18.896;-99.222;2023-12-20T03:04:13;17.30;1.00
12413;DHT22;13877;18.896;-99.222;2023-12-20T03:06:40;17.30;1.00
12413;DHT22;13877;18.896;-99.222;2023-12-20T03:09:08;17.30;1.00
12413;DHT22;13877;18.896;-99.222;2023-12-20T03:11:37;17.30;1.00
12413;DHT22;13877;18.896;-99.222;2023-12-20T03:14:05;17.30;1.00
12413;DHT22;13877;18.896;-99.222;2023-12-20T03:16:32;17.20;1.00
12413;DHT22;13877;18.896;-99.222;2023-12-20T03:19:00;17.30;1.00
12413;DHT22;13877;18.896;-99.222;2023-12-20T03:21:27;17.30;1.00
12413;DHT22;13877;18.896;-99.222;2023-12-20T03:23:55;17.40;1.00
12413;DHT22;13877;18.896;-99.222;2023-12-20T03:26:24;17.40;1.00
12413;DHT22;13877;18.896;-99.222;2023-12-20T03:28:51;17.50;1.00
12413;DHT22;13877;18.896;-99.222;2023-12-20T03:31:19;17.50;1.00
12413;DHT22;13877;18.896;-99.222;2023-12-20T03:33:48;17.40;1.00
12413;DHT22;13877;18.896;-99.222;2023-12-20T03:36:15;17.40;1.00
12413;DHT22;13877;18.896;-99.222;2023-12-20T03:38:42;17.30;1.00
12413;DHT22;13877;18.896;-99.222;2023-12-20T03:41:09;17.30;1.00
12413;DHT22;13877;18.896;-99.222;2023-12-20T03:43:37;17.20;1.00
12413;DHT22;13877;18.896;-99.222;2023-12-20T03:46:07;17.20;1.00
12413;DHT22;13877;18.896;-99.222;2023-12-20T03:48:37;17.20;1.00
12413;DHT22;13877;18.896;-99.222;2023-12-20T03:51:04;17.20;1.00
12413;DHT22;13877;18.896;-99.222;2023-12-20T03:53:32;17.20;1.00
12413;DHT22;13877;18.896;-99.222;2023-12-20T03:55:59;17.30;1.00
12413;DHT22;13877;18.896;-99.222;2023-12-20T03:58:27;17.30;1.00
12413;DHT22;13877;18.896;-99.222;2023-12-20T04:00:55;17.30;1.00
12413;DHT22;13877;18.896;-99.222;2023-12-20T04:03:23;17.20;1.00
12413;DHT22;13877;18.896;-99.222;2023-12-20T04:05:51;17.20;1.00
12413;DHT22;13877;18.896;-99.222;2023-12-20T04:08:18;17.20;1.00
12413;DHT22;13877;18.896;-99.222;2023-12-20T04:10:45;17.10;1.00
12413;DHT22;13877;18.896;-99.222;2023-12-20T04:13:13;17.10;1.00
12413;DHT22;13877;18.896;-99.222;2023-12-20T04:15:40;17.00;1.00
12413;DHT22;13877;18.896;-99.222;2023-12-20T04:18:09;16.90;1.00
12413;DHT22;13877;18.896;-99.222;2023-12-20T04:20:36;16.80;1.00
12413;DHT22;13877;18.896;-99.222;2023-12-20T04:23:05;16.80;1.00
12413;DHT22;13877;18.896;-99.222;2023-12-20T04:25:37;16.80;1.00
12413;DHT22;13877;18.896;-99.222;2023-12-20T04:28:08;16.90;1.00
12413;DHT22;13877;18.896;-99.222;2023-12-20T04:30:37;16.90;1.00
12413;DHT22;13877;18.896;-99.222;2023-12-20T04:33:04;16.90;1.00
12413;DHT22;13877;18.896;-99.222;2023-12-20T04:35:32;16.80;1.00
12413;DHT22;13877;18.896;-99.222;2023-12-20T04:38:02;16.90;1.00
12413;DHT22;13877;18.896;-99.222;2023-12-20T04:40:30;16.90;1.00
12413;DHT22;13877;18.896;-99.222;2023-12-20T04:42:57;17.00;1.00
12413;DHT22;13877;18.896;-99.222;2023-12-20T04:45:26;16.90;1.00
12413;DHT22;13877;18.896;-99.222;2023-12-20T04:47:53;17.00;1.00
12413;DHT22;13877;18.896;-99.222;2023-12-20T04:50:21;17.00;1.00
12413;DHT22;13877;18.896;-99.222;2023-12-20T04:52:48;17.20;1.00
12413;DHT22;13877;18.896;-99.222;2023-12-20T04:55:16;17.20;1.00
12413;DHT22;13877;18.896;-99.222;2023-12-20T04:57:43;17.10;1.00
12413;DHT22;13877;18.896;-99.222;2023-12-20T05:00:11;17.00;1.00
12413;DHT22;13877;18.896;-99.222;2023-12-20T05:02:41;17.00;1.00
12413;DHT22;13877;18.896;-99.222;2023-12-20T05:05:08;17.00;1.00
12413;DHT22;13877;18.896;-99.222;2023-12-20T05:07:36;17.00;1.00
12413;DHT22;13877;18.896;-99.222;2023-12-20T05:10:04;17.00;1.00
12413;DHT22;13877;18.896;-99.222;2023-12-20T05:12:31;17.00;1.00
12413;DHT22;13877;18.896;-99.222;2023-12-20T05:14:58;17.00;1.00
12413;DHT22;13877;18.896;-99.222;2023-12-20T05:17:26;16.90;1.00
12413;DHT22;13877;18.896;-99.222;2023-12-20T05:19:54;16.90;1.00
12413;DHT22;13877;18.896;-99.222;2023-12-20T05:22:22;16.80;1.00
12413;DHT22;13877;18.896;-99.222;2023-12-20T05:24:50;16.80;1.00
12413;DHT22;13877;18.896;-99.222;2023-12-20T05:27:17;16.80;1.00
12413;DHT22;13877;18.896;-99.222;2023-12-20T05:29:46;16.80;1.00
12413;DHT22;13877;18.896;-99.222;2023-12-20T05:32:13;16.80;1.00
12413;DHT22;13877;18.896;-99.222;2023-12-20T05:34:41;16.80;1.00
12413;DHT22;13877;18.896;-99.222;2023-12-20T05:37:08;17.00;1.00
12413;DHT22;13877;18.896;-99.222;2023-12-20T05:39:37;16.90;1.00
12413;DHT22;13877;18.896;-99.222;2023-12-20T05:42:05;16.80;1.00
12413;DHT22;13877;18.896;-99.222;2023-12-20T05:44:32;16.70;1.00
12413;DHT22;13877;18.896;-99.222;2023-12-20T05:47:02;16.50;1.00
12413;DHT22;13877;18.896;-99.222;2023-12-20T05:49:30;16.40;1.00
12413;DHT22;13877;18.896;-99.222;2023-12-20T05:52:00;16.10;1.00
12413;DHT22;13877;18.896;-99.222;2023-12-20T05:54:27;15.70;1.00
12413;DHT22;13877;18.896;-99.222;2023-12-20T05:56:55;15.60;1.00
12413;DHT22;13877;18.896;-99.222;2023-12-20T05:59:28;15.60;1.00
12413;DHT22;13877;18.896;-99.222;2023-12-20T06:01:55;15.50;1.00
12413;DHT22;13877;18.896;-99.222;2023-12-20T06:04:23;15.30;1.00
12413;DHT22;13877;18.896;-99.222;2023-12-20T06:06:50;15.00;1.00
12413;DHT22;13877;18.896;-99.222;2023-12-20T06:09:17;14.90;1.00
12413;DHT22;13877;18.896;-99.222;2023-12-20T06:11:45;14.80;1.00
12413;DHT22;13877;18.896;-99.222;2023-12-20T06:14:12;15.10;1.00
12413;DHT22;13877;18.896;-99.222;2023-12-20T06:16:39;15.00;1.00
12413;DHT22;13877;18.896;-99.222;2023-12-20T06:19:07;15.10;1.00
12413;DHT22;13877;18.896;-99.222;2023-12-20T06:21:34;15.30;1.00
12413;DHT22;13877;18.896;-99.222;2023-12-20T06:24:01;15.60;1.00
12413;DHT22;13877;18.896;-99.222;2023-12-20T06:26:29;15.60;1.00
12413;DHT22;13877;18.896;-99.222;2023-12-20T06:28:56;15.50;1.00
12413;DHT22;13877;18.896;-99.222;2023-12-20T06:31:23;15.60;1.00
12413;DHT22;13877;18.896;-99.222;2023-12-20T06:33:50;15.60;1.00
12413;DHT22;13877;18.896;-99.222;2023-12-20T06:36:26;15.40;1.00
12413;DHT22;13877;18.896;-99.222;2023-12-20T06:38:53;14.90;1.00
12413;DHT22;13877;18.896;-99.222;2023-12-20T06:41:21;14.80;1.00
12413;DHT22;13877;18.896;-99.222;2023-12-20T06:43:48;14.70;1.00
12413;DHT22;13877;18.896;-99.222;2023-12-20T06:46:15;14.90;1.00
12413;DHT22;13877;18.896;-99.222;2023-12-20T06:48:43;15.10;1.00
12413;DHT22;13877;18.896;-99.222;2023-12-20T06:51:15;15.00;1.00
12413;DHT22;13877;18.896;-99.222;2023-12-20T06:53:44;14.60;1.00
12413;DHT22;13877;18.896;-99.222;2023-12-20T06:56:11;14.90;1.00
12413;DHT22;13877;18.896;-99.222;2023-12-20T06:58:43;14.90;1.00
12413;DHT22;13877;18.896;-99.222;2023-12-20T07:01:14;14.30;1.00
12413;DHT22;13877;18.896;-99.222;2023-12-20T07:03:42;13.90;1.00
12413;DHT22;13877;18.896;-99.222;2023-12-20T07:06:09;13.90;1.00
12413;DHT22;13877;18.896;-99.222;2023-12-20T07:08:37;14.00;1.00
12413;DHT22;13877;18.896;-99.222;2023-12-20T07:11:04;14.30;1.00
12413;DHT22;13877;18.896;-99.222;2023-12-20T07:13:32;14.60;1.00
12413;DHT22;13877;18.896;-99.222;2023-12-20T07:15:59;14.70;1.00
12413;DHT22;13877;18.896;-99.222;2023-12-20T07:18:27;14.70;1.00
12413;DHT22;13877;18.896;-99.222;2023-12-20T07:20:54;14.50;1.00
12413;DHT22;13877;18.896;-99.222;2023-12-20T07:23:22;14.40;1.00
12413;DHT22;13877;18.896;-99.222;2023-12-20T07:25:49;14.50;1.00
12413;DHT22;13877;18.896;-99.222;2023-12-20T07:28:17;14.50;1.00
12413;DHT22;13877;18.896;-99.222;2023-12-20T07:30:44;14.80;1.00
12413;DHT22;13877;18.896;-99.222;2023-12-20T07:33:12;14.80;1.00
12413;DHT22;13877;18.896;-99.222;2023-12-20T07:35:39;14.90;1.00
12413;DHT22;13877;18.896;-99.222;2023-12-20T07:38:06;14.80;1.00
12413;DHT22;13877;18.896;-99.222;2023-12-20T07:40:33;14.70;1.00
12413;DHT22;13877;18.896;-99.222;2023-12-20T07:43:01;14.80;1.00
12413;DHT22;13877;18.896;-99.222;2023-12-20T07:45:28;14.80;1.00
12413;DHT22;13877;18.896;-99.222;2023-12-20T07:47:55;14.70;1.00
12413;DHT22;13877;18.896;-99.222;2023-12-20T07:50:23;14.60;1.00
12413;DHT22;13877;18.896;-99.222;2023-12-20T07:52:50;14.60;1.00
12413;DHT22;13877;18.896;-99.222;2023-12-20T07:55:17;14.50;1.00
12413;DHT22;13877;18.896;-99.222;2023-12-20T07:57:45;14.40;1.00
12413;DHT22;13877;18.896;-99.222;2023-12-20T08:00:12;14.20;1.00
12413;DHT22;13877;18.896;-99.222;2023-12-20T08:02:40;14.00;1.00
12413;DHT22;13877;18.896;-99.222;2023-12-20T08:05:09;14.10;1.00
12413;DHT22;13877;18.896;-99.222;2023-12-20T08:07:36;14.30;1.00
12413;DHT22;13877;18.896;-99.222;2023-12-20T08:10:04;14.50;1.00
12413;DHT22;13877;18.896;-99.222;2023-12-20T08:12:33;14.70;1.00
12413;DHT22;13877;18.896;-99.222;2023-12-20T08:15:02;14.80;1.00
12413;DHT22;13877;18.896;-99.222;2023-12-20T08:17:30;14.90;1.00
12413;DHT22;13877;18.896;-99.222;2023-12-20T08:19:58;15.00;1.00
12413;DHT22;13877;18.896;-99.222;2023-12-20T08:22:26;15.00;1.00
12413;DHT22;13877;18.896;-99.222;2023-12-20T08:24:53;15.00;1.00
12413;DHT22;13877;18.896;-99.222;2023-12-20T08:27:20;14.90;1.00
12413;DHT22;13877;18.896;-99.222;2023-12-20T08:29:48;14.70;1.00
12413;DHT22;13877;18.896;-99.222;2023-12-20T08:32:16;14.50;1.00
12413;DHT22;13877;18.896;-99.222;2023-12-20T08:34:44;14.40;1.00
12413;DHT22;13877;18.896;-99.222;2023-12-20T08:37:11;14.40;1.00
12413;DHT22;13877;18.896;-99.222;2023-12-20T08:39:38;14.50;1.00
12413;DHT22;13877;18.896;-99.222;2023-12-20T08:42:06;14.60;1.00
12413;DHT22;13877;18.896;-99.222;2023-12-20T08:44:33;14.60;1.00
12413;DHT22;13877;18.896;-99.222;2023-12-20T08:47:00;14.50;1.00
12413;DHT22;13877;18.896;-99.222;2023-12-20T08:49:28;14.50;1.00
12413;DHT22;13877;18.896;-99.222;2023-12-20T08:51:55;14.60;1.00
12413;DHT22;13877;18.896;-99.222;2023-12-20T08:54:22;14.50;1.00
12413;DHT22;13877;18.896;-99.222;2023-12-20T08:56:50;14.40;1.00
12413;DHT22;13877;18.896;-99.222;2023-12-20T08:59:17;14.60;1.00
12413;DHT22;13877;18.896;-99.222;2023-12-20T09:01:45;14.40;1.00
12413;DHT22;13877;18.896;-99.222;2023-12-20T09:04:15;14.10;1.00
12413;DHT22;13877;18.896;-99.222;2023-12-20T09:06:43;13.90;1.00
12413;DHT22;13877;18.896;-99.222;2023-12-20T09:09:10;13.80;1.00
12413;DHT22;13877;18.896;-99.222;2023-12-20T09:11:41;13.70;1.00
12413;DHT22;13877;18.896;-99.222;2023-12-20T09:14:08;13.80;1.00
12413;DHT22;13877;18.896;-99.222;2023-12-20T09:16:36;14.10;1.00
12413;DHT22;13877;18.896;-99.222;2023-12-20T09:19:03;14.20;1.00
12413;DHT22;13877;18.896;-99.222;2023-12-20T09:21:31;13.90;1.00
12413;DHT22;13877;18.896;-99.222;2023-12-20T09:23:58;13.70;1.00
12413;DHT22;13877;18.896;-99.222;2023-12-20T09:26:25;13.50;1.00
12413;DHT22;13877;18.896;-99.222;2023-12-20T09:28:53;13.50;1.00
12413;DHT22;13877;18.896;-99.222;2023-12-20T09:31:20;13.50;1.00
12413;DHT22;13877;18.896;-99.222;2023-12-20T09:33:48;13.50;1.00
12413;DHT22;13877;18.896;-99.222;2023-12-20T09:36:16;13.40;1.00
12413;DHT22;13877;18.896;-99.222;2023-12-20T09:38:44;13.30;1.00
12413;DHT22;13877;18.896;-99.222;2023-12-20T09:41:13;13.10;1.00
12413;DHT22;13877;18.896;-99.222;2023-12-20T09:43:42;12.80;1.00
12413;DHT22;13877;18.896;-99.222;2023-12-20T09:46:15;12.50;1.00
12413;DHT22;13877;18.896;-99.222;2023-12-20T09:48:45;12.60;1.00
12413;DHT22;13877;18.896;-99.222;2023-12-20T09:51:13;12.60;1.00
12413;DHT22;13877;18.896;-99.222;2023-12-20T09:53:43;12.70;1.00
12413;DHT22;13877;18.896;-99.222;2023-12-20T09:56:10;12.90;1.00
12413;DHT22;13877;18.896;-99.222;2023-12-20T09:58:38;13.10;1.00
12413;DHT22;13877;18.896;-99.222;2023-12-20T10:01:07;13.30;1.00
12413;DHT22;13877;18.896;-99.222;2023-12-20T10:03:35;13.50;1.00
12413;DHT22;13877;18.896;-99.222;2023-12-20T10:06:03;13.70;1.00
12413;DHT22;13877;18.896;-99.222;2023-12-20T10:08:31;13.70;1.00
12413;DHT22;13877;18.896;-99.222;2023-12-20T10:10:59;13.80;1.00
12413;DHT22;13877;18.896;-99.222;2023-12-20T10:13:29;13.80;1.00
12413;DHT22;13877;18.896;-99.222;2023-12-20T10:15:57;13.90;1.00
12413;DHT22;13877;18.896;-99.222;2023-12-20T10:18:24;13.90;1.00
12413;DHT22;13877;18.896;-99.222;2023-12-20T10:20:51;14.00;1.00
12413;DHT22;13877;18.896;-99.222;2023-12-20T10:23:19;13.90;1.00
12413;DHT22;13877;18.896;-99.222;2023-12-20T10:25:59;13.80;1.00
12413;DHT22;13877;18.896;-99.222;2023-12-20T10:28:28;13.70;1.00
12413;DHT22;13877;18.896;-99.222;2023-12-20T10:31:01;13.50;1.00
12413;DHT22;13877;18.896;-99.222;2023-12-20T10:33:30;13.60;1.00
12413;DHT22;13877;18.896;-99.222;2023-12-20T10:36:01;13.80;1.00
12413;DHT22;13877;18.896;-99.222;2023-12-20T10:38:29;13.80;1.00
12413;DHT22;13877;18.896;-99.222;2023-12-20T10:40:58;14.00;1.00
12413;DHT22;13877;18.896;-99.222;2023-12-20T10:43:27;13.90;1.00
12413;DHT22;13877;18.896;-99.222;2023-12-20T10:45:55;13.90;1.00
12413;DHT22;13877;18.896;-99.222;2023-12-20T10:48:24;13.80;1.00
12413;DHT22;13877;18.896;-99.222;2023-12-20T10:50:56;13.70;1.00
12413;DHT22;13877;18.896;-99.222;2023-12-20T10:53:25;13.30;1.00
12413;DHT22;13877;18.896;-99.222;2023-12-20T10:55:55;12.90;1.00
12413;DHT22;13877;18.896;-99.222;2023-12-20T10:58:26;12.60;1.00
12413;DHT22;13877;18.896;-99.222;2023-12-20T11:01:00;12.60;1.00
12413;DHT22;13877;18.896;-99.222;2023-12-20T11:03:34;12.30;1.00
12413;DHT22;13877;18.896;-99.222;2023-12-20T11:08:52;12.20;1.00
12413;DHT22;13877;18.896;-99.222;2023-12-20T11:14:41;12.10;1.00
12413;DHT22;13877;18.896;-99.222;2023-12-20T11:17:10;11.70;1.00
12413;DHT22;13877;18.896;-99.222;2023-12-20T11:22:22;11.20;1.00
12413;DHT22;13877;18.896;-99.222;2023-12-20T11:24:53;11.20;1.00
12413;DHT22;13877;18.896;-99.222;2023-12-20T11:27:21;11.20;1.00
12413;DHT22;13877;18.896;-99.222;2023-12-20T11:29:56;11.20;1.00
12413;DHT22;13877;18.896;-99.222;2023-12-20T11:37:39;11.20;1.00
12413;DHT22;13877;18.896;-99.222;2023-12-20T11:40:17;11.30;1.00
12413;DHT22;13877;18.896;-99.222;2023-12-20T11:42:49;11.40;1.00
12413;DHT22;13877;18.896;-99.222;2023-12-20T11:45:19;11.50;1.00
12413;DHT22;13877;18.896;-99.222;2023-12-20T11:47:51;11.90;1.00
12413;DHT22;13877;18.896;-99.222;2023-12-20T11:50:21;12.10;1.00
12413;DHT22;13877;18.896;-99.222;2023-12-20T11:52:51;12.20;1.00
12413;DHT22;13877;18.896;-99.222;2023-12-20T11:55:19;12.20;1.00
12413;DHT22;13877;18.896;-99.222;2023-12-20T11:57:46;12.20;1.00
12413;DHT22;13877;18.896;-99.222;2023-12-20T12:00:14;12.20;1.00
12413;DHT22;13877;18.896;-99.222;2023-12-20T12:02:42;12.10;1.00
12413;DHT22;13877;18.896;-99.222;2023-12-20T12:05:09;12.00;1.00
12413;DHT22;13877;18.896;-99.222;2023-12-20T12:07:37;12.10;1.00
12413;DHT22;13877;18.896;-99.222;2023-12-20T12:10:05;12.10;1.00
12413;DHT22;13877;18.896;-99.222;2023-12-20T12:12:32;12.20;1.00
12413;DHT22;13877;18.896;-99.222;2023-12-20T12:15:00;12.20;1.00
12413;DHT22;13877;18.896;-99.222;2023-12-20T12:17:27;12.20;1.00
12413;DHT22;13877;18.896;-99.222;2023-12-20T12:20:03;12.40;1.00
12413;DHT22;13877;18.896;-99.222;2023-12-20T12:22:31;12.30;1.00
12413;DHT22;13877;18.896;-99.222;2023-12-20T12:24:59;12.20;1.00
12413;DHT22;13877;18.896;-99.222;2023-12-20T12:27:38;12.30;1.00
12413;DHT22;13877;18.896;-99.222;2023-12-20T12:30:07;12.20;1.00
12413;DHT22;13877;18.896;-99.222;2023-12-20T12:32:35;12.00;1.00
12413;DHT22;13877;18.896;-99.222;2023-12-20T12:35:04;11.90;1.00
12413;DHT22;13877;18.896;-99.222;2023-12-20T12:37:35;11.90;1.00
12413;DHT22;13877;18.896;-99.222;2023-12-20T12:40:16;12.10;1.00
12413;DHT22;13877;18.896;-99.222;2023-12-20T12:42:44;12.20;1.00
12413;DHT22;13877;18.896;-99.222;2023-12-20T12:45:12;12.20;1.00
12413;DHT22;13877;18.896;-99.222;2023-12-20T12:47:40;12.20;1.00
12413;DHT22;13877;18.896;-99.222;2023-12-20T12:50:08;12.10;1.00
12413;DHT22;13877;18.896;-99.222;2023-12-20T12:52:36;11.90;1.00
12413;DHT22;13877;18.896;-99.222;2023-12-20T12:55:04;11.90;1.00
12413;DHT22;13877;18.896;-99.222;2023-12-20T12:57:32;12.00;1.00
12413;DHT22;13877;18.896;-99.222;2023-12-20T13:00:00;12.00;1.00
12413;DHT22;13877;18.896;-99.222;2023-12-20T13:02:27;12.00;1.00
12413;DHT22;13877;18.896;-99.222;2023-12-20T13:04:57;11.90;1.00
12413;DHT22;13877;18.896;-99.222;2023-12-20T13:07:26;12.20;1.00
12413;DHT22;13877;18.896;-99.222;2023-12-20T13:09:53;12.30;1.00
12413;DHT22;13877;18.896;-99.222;2023-12-20T13:12:21;12.20;1.00
12413;DHT22;13877;18.896;-99.222;2023-12-20T13:14:48;12.10;1.00
12413;DHT22;13877;18.896;-99.222;2023-12-20T13:17:16;12.10;1.00
12413;DHT22;13877;18.896;-99.222;2023-12-20T13:19:43;12.00;1.00
12413;DHT22;13877;18.896;-99.222;2023-12-20T13:22:12;11.70;1.00
12413;DHT22;13877;18.896;-99.222;2023-12-20T13:24:40;11.70;1.00
12413;DHT22;13877;18.896;-99.222;2023-12-20T13:27:07;11.90;1.00
12413;DHT22;13877;18.896;-99.222;2023-12-20T13:29:35;11.90;1.00
12413;DHT22;13877;18.896;-99.222;2023-12-20T13:32:03;11.90;1.00
12413;DHT22;13877;18.896;-99.222;2023-12-20T13:34:30;12.30;1.00
12413;DHT22;13877;18.896;-99.222;2023-12-20T13:36:58;12.60;1.00
12413;DHT22;13877;18.896;-99.222;2023-12-20T13:39:25;12.80;1.00
12413;DHT22;13877;18.896;-99.222;2023-12-20T13:41:54;13.00;1.00
12413;DHT22;13877;18.896;-99.222;2023-12-20T13:44:23;13.20;1.00
12413;DHT22;13877;18.896;-99.222;2023-12-20T13:46:53;13.40;1.00
12413;DHT22;13877;18.896;-99.222;2023-12-20T13:49:20;13.60;1.00
12413;DHT22;13877;18.896;-99.222;2023-12-20T13:51:53;13.60;1.00
12413;DHT22;13877;18.896;-99.222;2023-12-20T13:54:25;13.80;1.00
12413;DHT22;13877;18.896;-99.222;2023-12-20T13:56:52;13.90;1.00
12413;DHT22;13877;18.896;-99.222;2023-12-20T13:59:20;14.10;1.00
12413;DHT22;13877;18.896;-99.222;2023-12-20T14:01:47;14.00;1.00
12413;DHT22;13877;18.896;-99.222;2023-12-20T14:04:17;14.20;1.00
12413;DHT22;13877;18.896;-99.222;2023-12-20T14:06:44;14.30;1.00
12413;DHT22;13877;18.896;-99.222;2023-12-20T14:09:12;14.40;1.00
12413;DHT22;13877;18.896;-99.222;2023-12-20T14:11:44;14.70;1.00
12413;DHT22;13877;18.896;-99.222;2023-12-20T14:14:12;14.80;1.00
12413;DHT22;13877;18.896;-99.222;2023-12-20T14:16:41;15.20;1.00
12413;DHT22;13877;18.896;-99.222;2023-12-20T14:19:15;15.50;1.00
12413;DHT22;13877;18.896;-99.222;2023-12-20T14:21:43;15.80;1.00
12413;DHT22;13877;18.896;-99.222;2023-12-20T14:24:15;16.00;1.00
12413;DHT22;13877;18.896;-99.222;2023-12-20T14:26:46;16.40;1.00
12413;DHT22;13877;18.896;-99.222;2023-12-20T14:29:13;16.50;1.00
12413;DHT22;13877;18.896;-99.222;2023-12-20T14:31:41;16.50;1.00
12413;DHT22;13877;18.896;-99.222;2023-12-20T14:34:08;16.90;1.00
12413;DHT22;13877;18.896;-99.222;2023-12-20T14:36:36;17.20;1.00
12413;DHT22;13877;18.896;-99.222;2023-12-20T14:39:05;17.40;1.00
12413;DHT22;13877;18.896;-99.222;2023-12-20T14:41:32;17.50;1.00
12413;DHT22;13877;18.896;-99.222;2023-12-20T14:43:59;17.50;1.00
12413;DHT22;13877;18.896;-99.222;2023-12-20T14:53:41;18.20;1.00
12413;DHT22;13877;18.896;-99.222;2023-12-20T14:56:08;18.30;1.00
12413;DHT22;13877;18.896;-99.222;2023-12-20T14:58:36;18.30;1.00
12413;DHT22;13877;18.896;-99.222;2023-12-20T15:01:04;18.30;1.00
12413;DHT22;13877;18.896;-99.222;2023-12-20T15:03:35;18.40;1.00
12413;DHT22;13877;18.896;-99.222;2023-12-20T15:06:03;18.20;1.00
12413;DHT22;13877;18.896;-99.222;2023-12-20T15:08:31;18.50;1.00
12413;DHT22;13877;18.896;-99.222;2023-12-20T15:10:58;18.80;1.00
12413;DHT22;13877;18.896;-99.222;2023-12-20T15:13:28;18.60;1.00
12413;DHT22;13877;18.896;-99.222;2023-12-20T15:15:55;19.00;1.00
12413;DHT22;13877;18.896;-99.222;2023-12-20T15:18:22;19.30;1.00
12413;DHT22;13877;18.896;-99.222;2023-12-20T15:20:51;19.70;1.00
12413;DHT22;13877;18.896;-99.222;2023-12-20T15:23:22;19.60;1.00
12413;DHT22;13877;18.896;-99.222;2023-12-20T15:25:53;19.20;1.00
12413;DHT22;13877;18.896;-99.222;2023-12-20T15:28:21;19.10;1.00
12413;DHT22;13877;18.896;-99.222;2023-12-20T15:30:50;19.40;1.00
12413;DHT22;13877;18.896;-99.222;2023-12-20T15:33:17;19.60;1.00
12413;DHT22;13877;18.896;-99.222;2023-12-20T15:35:45;19.70;1.00
12413;DHT22;13877;18.896;-99.222;2023-12-20T15:38:14;20.10;1.00
12413;DHT22;13877;18.896;-99.222;2023-12-20T15:40:41;20.50;1.00
12413;DHT22;13877;18.896;-99.222;2023-12-20T15:43:10;20.60;1.00
12413;DHT22;13877;18.896;-99.222;2023-12-20T15:45:39;20.10;1.00
12413;DHT22;13877;18.896;-99.222;2023-12-20T15:48:06;20.50;1.00
12413;DHT22;13877;18.896;-99.222;2023-12-20T15:50:35;20.90;1.00